Time;durP1;ratioP1;P1;durP2;ratioP2;P2;SDS_P1;SDS_P2;PMS_P1;PMS_P2;Temp;Humidity;BMP_temperature;BMP_pressure;BME280_temperature;BME280_humidity;BME280_pressure;Samples;Min_cycle;Max_cycle;Signal;HPM_P1;HPM_P2
2023/06/07 00:02:14;;;;;;;17.75;9.40;;;;;;;;;;5012882;28;20461;-60
2023/06/07 00:04:40;;;;;;;18.33;8.93;;;;;;;;;;5013055;28;20046;-59
2023/06/07 00:07:07;;;;;;;18.17;8.27;;;;;;;;;;5012611;28;20509;-59
2023/06/07 00:09:33;;;;;;;26.45;8.20;;;;;;;;;;5012638;28;20336;-58
2023/06/07 00:11:59;;;;;;;15.35;8.63;;;;;;;;;;5011625;28;20054;-59
2023/06/07 00:14:25;;;;;;;19.42;8.35;;;;;;;;;;5012230;28;20046;-59
2023/06/07 00:16:52;;;;;;;23.73;8.93;;;;;;;;;;5011751;28;20398;-58
2023/06/07 00:19:24;;;;;;;16.15;8.80;;;;;;;;;;4995265;28;20045;-59
2023/06/07 00:21:51;;;;;;;17.80;8.07;;;;;;;;;;4995164;28;20569;-59
2023/06/07 00:24:17;;;;;;;19.10;8.23;;;;;;;;;;5011056;28;20072;-60
2023/06/07 00:26:44;;;;;;;18.67;9.23;;;;;;;;;;5012542;28;20046;-58
2023/06/07 00:29:10;;;;;;;16.65;8.55;;;;;;;;;;4995198;28;20398;-59
2023/06/07 00:31:36;;;;;;;16.67;9.00;;;;;;;;;;4994878;28;20056;-58
2023/06/07 00:34:03;;;;;;;18.98;8.48;;;;;;;;;;5012664;28;20071;-58
2023/06/07 00:36:29;;;;;;;16.13;8.45;;;;;;;;;;5012404;28;20096;-58
2023/06/07 00:38:55;;;;;;;19.20;8.73;;;;;;;;;;5012390;28;20056;-58
2023/06/07 00:41:22;;;;;;;20.83;9.05;;;;;;;;;;5012124;28;20046;-59
2023/06/07 00:43:49;;;;;;;13.50;8.02;;;;;;;;;;4994438;28;20053;-59
2023/06/07 00:46:18;;;;;;;13.60;7.53;;;;;;;;;;5012111;28;20132;-61
2023/06/07 00:48:45;;;;;;;18.30;8.93;;;;;;;;;;4994756;28;20494;-59
2023/06/07 00:51:11;;;;;;;14.65;8.15;;;;;;;;;;4994985;28;20574;-59
2023/06/07 00:53:37;;;;;;;18.63;8.45;;;;;;;;;;5011965;28;20375;-59
2023/06/07 00:56:05;;;;;;;22.08;8.40;;;;;;;;;;5012516;28;20057;-59
2023/06/07 00:58:32;;;;;;;19.65;7.93;;;;;;;;;;5010597;28;20398;-59
2023/06/07 01:00:59;;;;;;;20.98;8.70;;;;;;;;;;4994958;28;20046;-59
2023/06/07 01:03:26;;;;;;;21.27;7.88;;;;;;;;;;5012008;28;20093;-59
2023/06/07 01:05:52;;;;;;;18.98;8.65;;;;;;;;;;5012247;28;20166;-59
2023/06/07 01:08:18;;;;;;;23.13;8.38;;;;;;;;;;4994693;28;20045;-59
2023/06/07 01:10:45;;;;;;;18.05;8.02;;;;;;;;;;5011260;28;20057;-58
2023/06/07 01:13:12;;;;;;;18.33;8.32;;;;;;;;;;4994329;28;20089;-59
2023/06/07 01:15:38;;;;;;;21.77;8.38;;;;;;;;;;5012188;28;20085;-60
2023/06/07 01:18:05;;;;;;;18.05;7.82;;;;;;;;;;5013579;28;20068;-59
2023/06/07 01:20:32;;;;;;;17.30;8.38;;;;;;;;;;5015784;28;20060;-58
2023/06/07 01:22:59;;;;;;;21.48;8.27;;;;;;;;;;5014685;28;20096;-60
2023/06/07 01:25:26;;;;;;;14.23;8.73;;;;;;;;;;4998409;28;20046;-59
2023/06/07 01:27:53;;;;;;;20.65;8.90;;;;;;;;;;4998187;28;20475;-59
2023/06/07 01:30:21;;;;;;;17.17;8.23;;;;;;;;;;4997981;28;20498;-59
2023/06/07 01:32:47;;;;;;;22.13;8.30;;;;;;;;;;5014641;28;20054;-58
2023/06/07 01:35:14;;;;;;;17.80;8.27;;;;;;;;;;5015434;28;20050;-60
2023/06/07 01:37:41;;;;;;;24.98;9.32;;;;;;;;;;5015899;28;20430;-59
2023/06/07 01:40:08;;;;;;;23.05;9.38;;;;;;;;;;4998276;28;20088;-58
2023/06/07 01:42:38;;;;;;;18.70;8.05;;;;;;;;;;5015041;28;20089;-59
2023/06/07 01:45:05;;;;;;;21.67;8.70;;;;;;;;;;4997973;28;20046;-59
2023/06/07 01:47:32;;;;;;;19.27;8.95;;;;;;;;;;4997918;28;20117;-59
2023/06/07 01:49:58;;;;;;;22.42;9.52;;;;;;;;;;5014256;28;20184;-59
2023/06/07 01:52:24;;;;;;;25.35;9.38;;;;;;;;;;5014247;28;20120;-58
2023/06/07 01:54:51;;;;;;;19.83;8.88;;;;;;;;;;5014390;28;20045;-59
2023/06/07 01:57:37;;;;;;;20.80;9.27;;;;;;;;;;5013539;28;20042;-59
2023/06/07 02:00:11;;;;;;;26.38;10.40;;;;;;;;;;4998009;28;20045;-59
2023/06/07 02:02:37;;;;;;;20.95;9.25;;;;;;;;;;5014850;28;20738;-59
2023/06/07 02:05:09;;;;;;;21.75;8.45;;;;;;;;;;5015329;28;20046;-59
2023/06/07 02:07:40;;;;;;;15.13;8.57;;;;;;;;;;4981519;28;20103;-59
2023/06/07 02:10:07;;;;;;;16.33;8.82;;;;;;;;;;4997855;28;20101;-59
2023/06/07 02:12:33;;;;;;;21.02;9.32;;;;;;;;;;5014504;28;20056;-58
2023/06/07 02:15:00;;;;;;;20.73;9.20;;;;;;;;;;4997523;28;20494;-59
2023/06/07 02:17:28;;;;;;;21.00;9.70;;;;;;;;;;4997641;28;20585;-59
2023/06/07 02:19:54;;;;;;;17.75;8.70;;;;;;;;;;4997665;28;20486;-59
2023/06/07 02:22:20;;;;;;;22.55;8.75;;;;;;;;;;5013473;28;20045;-59
2023/06/07 02:24:47;;;;;;;18.15;8.82;;;;;;;;;;5013176;28;20125;-59
2023/06/07 02:27:13;;;;;;;15.77;8.75;;;;;;;;;;4996953;28;20433;-62
2023/06/07 02:29:39;;;;;;;26.58;8.45;;;;;;;;;;5014119;28;20042;-59
2023/06/07 02:32:06;;;;;;;25.65;9.45;;;;;;;;;;4997519;28;20513;-59
2023/06/07 02:34:34;;;;;;;16.77;8.20;;;;;;;;;;4997132;28;20132;-59
2023/06/07 02:37:00;;;;;;;20.58;8.90;;;;;;;;;;5014728;28;20472;-59
2023/06/07 02:39:27;;;;;;;25.05;9.30;;;;;;;;;;5013888;28;20602;-59
2023/06/07 02:41:53;;;;;;;21.65;8.77;;;;;;;;;;5015016;28;20064;-59
2023/06/07 02:44:19;;;;;;;21.42;7.82;;;;;;;;;;5013222;28;20132;-59
2023/06/07 02:46:45;;;;;;;21.42;8.57;;;;;;;;;;5014564;28;20111;-59
2023/06/07 02:49:11;;;;;;;17.77;8.93;;;;;;;;;;5014230;28;20046;-59
2023/06/07 02:51:38;;;;;;;25.60;8.80;;;;;;;;;;5012927;28;20142;-59
2023/06/07 02:54:04;;;;;;;18.17;7.63;;;;;;;;;;5012633;28;20442;-59
2023/06/07 02:56:32;;;;;;;22.83;7.55;;;;;;;;;;4996362;28;20138;-59
2023/06/07 02:58:58;;;;;;;23.35;8.02;;;;;;;;;;5014297;28;20049;-59
2023/06/07 03:01:27;;;;;;;15.40;7.30;;;;;;;;;;5012532;28;20457;-60
2023/06/07 03:03:53;;;;;;;18.38;7.55;;;;;;;;;;5013789;28;20062;-59
2023/06/07 03:06:19;;;;;;;19.42;6.60;;;;;;;;;;5013603;28;20462;-59
2023/06/07 03:08:45;;;;;;;20.70;6.97;;;;;;;;;;5013693;28;20080;-59
2023/06/07 03:11:11;;;;;;;14.95;6.82;;;;;;;;;;5013763;28;20042;-59
2023/06/07 03:13:37;;;;;;;21.63;7.45;;;;;;;;;;5013661;28;20050;-59
2023/06/07 03:16:03;;;;;;;19.15;6.85;;;;;;;;;;5012825;28;20057;-59
2023/06/07 03:18:29;;;;;;;23.88;8.10;;;;;;;;;;4996309;28;20470;-59
2023/06/07 03:20:55;;;;;;;23.77;7.57;;;;;;;;;;4996540;28;20054;-61
2023/06/07 03:23:21;;;;;;;18.02;6.10;;;;;;;;;;5012982;28;20046;-60
2023/06/07 03:25:48;;;;;;;18.70;6.38;;;;;;;;;;5013558;28;20042;-59
2023/06/07 03:28:14;;;;;;;16.20;5.90;;;;;;;;;;5013761;28;20092;-59
2023/06/07 03:30:41;;;;;;;22.80;6.78;;;;;;;;;;5013702;28;20537;-60
2023/06/07 03:33:07;;;;;;;22.70;6.32;;;;;;;;;;5013626;28;20049;-59
2023/06/07 03:35:33;;;;;;;26.30;6.00;;;;;;;;;;5013232;28;20081;-60
2023/06/07 03:37:59;;;;;;;15.75;5.82;;;;;;;;;;4995753;28;20132;-59
2023/06/07 03:40:25;;;;;;;14.60;5.55;;;;;;;;;;5012227;28;20042;-59
2023/06/07 03:42:51;;;;;;;17.20;7.15;;;;;;;;;;5013447;28;20060;-60
2023/06/07 03:45:17;;;;;;;16.42;5.93;;;;;;;;;;5013062;28;20050;-59
2023/06/07 03:47:43;;;;;;;17.30;5.57;;;;;;;;;;5013286;28;20490;-60
2023/06/07 03:50:09;;;;;;;21.52;5.78;;;;;;;;;;4995784;28;20088;-59
2023/06/07 03:52:35;;;;;;;20.15;6.68;;;;;;;;;;5012478;28;20087;-59
2023/06/07 03:55:02;;;;;;;21.45;5.25;;;;;;;;;;4995780;28;20406;-59
2023/06/07 03:57:28;;;;;;;19.38;5.68;;;;;;;;;;5013021;28;20101;-59
2023/06/07 03:59:54;;;;;;;26.95;5.75;;;;;;;;;;5013001;28;20557;-59
2023/06/07 04:02:21;;;;;;;20.05;5.07;;;;;;;;;;4995271;28;20500;-59
2023/06/07 04:04:47;;;;;;;17.05;5.18;;;;;;;;;;5012846;28;20062;-60
2023/06/07 04:07:16;;;;;;;15.38;5.35;;;;;;;;;;5011199;28;20497;-64
2023/06/07 04:09:42;;;;;;;19.33;5.07;;;;;;;;;;5012656;28;20510;-59
2023/06/07 04:12:08;;;;;;;20.70;6.00;;;;;;;;;;5013025;28;20129;-59
2023/06/07 04:14:34;;;;;;;20.45;5.10;;;;;;;;;;4995395;28;20089;-59
2023/06/07 04:17:01;;;;;;;16.17;5.10;;;;;;;;;;5012801;28;20112;-59
2023/06/07 04:19:26;;;;;;;13.57;4.63;;;;;;;;;;5012539;28;20046;-59
2023/06/07 04:21:52;;;;;;;15.85;4.68;;;;;;;;;;5012268;28;20103;-61
2023/06/07 04:24:19;;;;;;;12.88;4.60;;;;;;;;;;4995054;28;20052;-59
2023/06/07 04:26:47;;;;;;;13.55;4.47;;;;;;;;;;5012619;28;20056;-59
2023/06/07 04:29:14;;;;;;;11.35;4.28;;;;;;;;;;5012478;28;20081;-62
2023/06/07 04:31:41;;;;;;;14.00;4.30;;;;;;;;;;5012763;28;20050;-59
2023/06/07 04:34:09;;;;;;;14.90;4.57;;;;;;;;;;4995178;28;20046;-59
2023/06/07 04:36:37;;;;;;;15.18;4.45;;;;;;;;;;4994456;28;20058;-59
2023/06/07 04:39:05;;;;;;;14.65;4.30;;;;;;;;;;4995252;28;20064;-60
2023/06/07 04:41:32;;;;;;;18.10;4.55;;;;;;;;;;5012315;28;20045;-59
2023/06/07 04:44:05;;;;;;;18.92;3.97;;;;;;;;;;4994819;28;20517;-59
2023/06/07 04:46:31;;;;;;;14.07;4.10;;;;;;;;;;4994928;28;20075;-59
2023/06/07 04:48:58;;;;;;;9.63;3.60;;;;;;;;;;5012324;28;20057;-61
2023/06/07 04:51:25;;;;;;;19.92;3.70;;;;;;;;;;5011676;28;20046;-59
2023/06/07 04:53:57;;;;;;;20.00;4.22;;;;;;;;;;4995170;28;20045;-58
2023/06/07 04:56:23;;;;;;;11.70;3.42;;;;;;;;;;4994708;28;20062;-60
2023/06/07 04:58:52;;;;;;;14.55;4.28;;;;;;;;;;5012323;28;20050;-59
2023/06/07 05:01:18;;;;;;;11.18;3.67;;;;;;;;;;4994665;28;20494;-59
2023/06/07 05:03:44;;;;;;;18.05;4.30;;;;;;;;;;4994515;28;20061;-59
2023/06/07 05:06:11;;;;;;;10.13;4.43;;;;;;;;;;5011972;28;20172;-58
2023/06/07 05:08:38;;;;;;;14.70;3.42;;;;;;;;;;5012215;28;20560;-59
2023/06/07 05:11:04;;;;;;;15.30;5.38;;;;;;;;;;5011101;28;20046;-59
2023/06/07 05:13:30;;;;;;;13.73;4.45;;;;;;;;;;5011877;28;20050;-60
2023/06/07 05:15:56;;;;;;;13.32;4.18;;;;;;;;;;5011965;28;20046;-61
2023/06/07 05:18:23;;;;;;;18.90;4.20;;;;;;;;;;5011712;28;20053;-60
2023/06/07 05:20:49;;;;;;;15.32;4.35;;;;;;;;;;5011959;28;20061;-61
2023/06/07 05:23:19;;;;;;;14.77;4.07;;;;;;;;;;5011785;28;20141;-60
2023/06/07 05:25:45;;;;;;;13.20;4.22;;;;;;;;;;4994723;28;20058;-60
2023/06/07 05:28:12;;;;;;;12.18;4.35;;;;;;;;;;4994505;28;20108;-60
2023/06/07 05:30:38;;;;;;;16.30;4.95;;;;;;;;;;4994588;28;20046;-60
2023/06/07 05:33:05;;;;;;;12.88;3.95;;;;;;;;;;5010962;28;20167;-59
2023/06/07 05:35:31;;;;;;;14.23;4.63;;;;;;;;;;4994013;28;20049;-59
2023/06/07 05:37:57;;;;;;;15.82;4.55;;;;;;;;;;5012047;28;20402;-60
2023/06/07 05:40:23;;;;;;;16.13;4.40;;;;;;;;;;5011723;28;20050;-59
2023/06/07 05:42:50;;;;;;;18.17;4.18;;;;;;;;;;4994649;28;20046;-60
2023/06/07 05:45:16;;;;;;;14.77;4.50;;;;;;;;;;5011373;28;20050;-60
2023/06/07 05:47:46;;;;;;;14.93;4.45;;;;;;;;;;5010540;28;20203;-60
2023/06/07 05:50:12;;;;;;;13.45;3.97;;;;;;;;;;5011965;28;20057;-59
2023/06/07 05:52:40;;;;;;;11.82;3.55;;;;;;;;;;4994588;28;20057;-60
2023/06/07 05:55:06;;;;;;;14.05;3.60;;;;;;;;;;4994635;28;20112;-60
2023/06/07 05:57:33;;;;;;;13.88;3.22;;;;;;;;;;5011519;28;20054;-60
2023/06/07 05:59:59;;;;;;;10.80;3.40;;;;;;;;;;5011618;28;20050;-59
2023/06/07 06:02:28;;;;;;;17.00;3.58;;;;;;;;;;4993806;28;20100;-60
2023/06/07 06:04:55;;;;;;;14.13;3.60;;;;;;;;;;4996450;28;20045;-60
2023/06/07 06:07:21;;;;;;;11.50;4.68;;;;;;;;;;4997548;28;20053;-60
2023/06/07 06:09:47;;;;;;;11.63;3.83;;;;;;;;;;5013944;28;20050;-60
2023/06/07 06:12:13;;;;;;;16.75;3.42;;;;;;;;;;5015016;28;20053;-64
2023/06/07 06:14:39;;;;;;;15.95;3.10;;;;;;;;;;5013742;28;20402;-60
2023/06/07 06:17:06;;;;;;;13.57;4.53;;;;;;;;;;5014756;28;20124;-59
2023/06/07 06:19:32;;;;;;;13.30;4.03;;;;;;;;;;4997375;28;20099;-61
2023/06/07 06:21:58;;;;;;;12.65;4.15;;;;;;;;;;5014809;28;20490;-60
2023/06/07 06:24:24;;;;;;;12.63;3.58;;;;;;;;;;5014565;28;20042;-60
2023/06/07 06:26:50;;;;;;;11.05;3.63;;;;;;;;;;5014776;28;20053;-60
2023/06/07 06:29:17;;;;;;;11.75;3.50;;;;;;;;;;4997015;28;20049;-60
2023/06/07 06:31:43;;;;;;;15.38;3.60;;;;;;;;;;5014549;28;20174;-60
2023/06/07 06:34:10;;;;;;;13.82;3.30;;;;;;;;;;4997176;28;20050;-60
2023/06/07 06:36:36;;;;;;;15.80;3.42;;;;;;;;;;4997049;28;20066;-60
2023/06/07 06:39:03;;;;;;;12.85;3.42;;;;;;;;;;5014628;28;20135;-60
2023/06/07 06:41:30;;;;;;;12.38;3.55;;;;;;;;;;5014233;28;20046;-60
2023/06/07 06:43:56;;;;;;;13.43;3.25;;;;;;;;;;4996822;28;20054;-60
2023/06/07 06:46:22;;;;;;;9.65;3.10;;;;;;;;;;5014084;28;20049;-61
2023/06/07 06:48:48;;;;;;;13.82;4.60;;;;;;;;;;4997008;28;20060;-61
2023/06/07 06:51:14;;;;;;;9.90;3.15;;;;;;;;;;4996886;28;20042;-61
2023/06/07 06:53:41;;;;;;;8.32;3.75;;;;;;;;;;5013981;28;20491;-60
2023/06/07 06:56:07;;;;;;;12.35;3.50;;;;;;;;;;4996862;28;20509;-60
2023/06/07 06:58:34;;;;;;;12.15;4.53;;;;;;;;;;5014416;28;20085;-60
2023/06/07 07:01:02;;;;;;;9.38;3.88;;;;;;;;;;5013891;28;20526;-60
2023/06/07 07:03:28;;;;;;;10.10;3.45;;;16.30;99.90;;;;;;5013755;28;20062;-61
2023/06/07 07:05:54;;;;;;;14.30;4.47;;;;;;;;;;5014118;28;20124;-61
2023/06/07 07:08:20;;;;;;;9.82;3.58;;;;;;;;;;5013753;28;20046;-61
2023/06/07 07:10:47;;;;;;;10.85;3.83;;;;;;;;;;5013912;28;20133;-60
2023/06/07 07:13:13;;;;;;;14.57;4.03;;;;;;;;;;5013833;28;20104;-62
2023/06/07 07:15:39;;;;;;;12.93;3.60;;;;;;;;;;5012386;28;20049;-61
2023/06/07 07:18:07;;;;;;;13.00;4.10;;;;;;;;;;5013886;28;20441;-61
2023/06/07 07:20:33;;;;;;;14.85;4.05;;;;;;;;;;5013441;28;20499;-60
2023/06/07 07:23:01;;;;;;;11.50;4.28;;;;;;;;;;5013747;28;20045;-61
2023/06/07 07:25:28;;;;;;;12.90;3.80;;;;;;;;;;4995763;28;20081;-60
2023/06/07 07:27:54;;;;;;;15.07;3.65;;;;;;;;;;5013862;28;20054;-61
2023/06/07 07:30:21;;;;;;;13.68;3.53;;;;;;;;;;5013187;28;20129;-61
2023/06/07 07:32:47;;;;;;;11.50;3.30;;;;;;;;;;4996316;28;20485;-60
2023/06/07 07:35:13;;;;;;;11.68;3.70;;;;;;;;;;5012256;28;20052;-64
2023/06/07 07:37:39;;;;;;;14.73;3.35;;;;;;;;;;5013497;28;20049;-60
2023/06/07 07:40:08;;;;;;;11.80;3.47;;;16.00;99.90;;;;;;5013439;28;20069;-61
2023/06/07 07:42:34;;;;;;;10.50;3.78;;;;;;;;;;5013395;28;20046;-61
2023/06/07 07:45:00;;;;;;;8.30;3.42;;;;;;;;;;5013280;28;20603;-61
2023/06/07 07:47:26;;;;;;;14.77;3.40;;;;;;;;;;5013157;28;20092;-61
2023/06/07 07:49:53;;;;;;;9.98;3.72;;;;;;;;;;4996015;28;20391;-61
2023/06/07 07:52:19;;;;;;;12.63;3.35;;;;;;;;;;5012856;28;20129;-60
2023/06/07 07:54:45;;;;;;;10.63;3.55;;;;;;;;;;5012989;28;20459;-60
2023/06/07 07:57:11;;;;;;;12.52;3.75;;;;;;;;;;4995544;28;20372;-61
2023/06/07 07:59:37;;;;;;;13.63;2.88;;;;;;;;;;5012593;28;20080;-61
2023/06/07 08:02:03;;;;;;;12.88;4.20;;;;;;;;;;5013208;28;20049;-61
2023/06/07 08:04:30;;;;;;;10.02;3.38;;;;;;;;;;5012588;28;20053;-61
2023/06/07 08:06:56;;;;;;;11.10;3.28;;;;;;;;;;5012893;28;20065;-61
2023/06/07 08:09:22;;;;;;;12.65;3.65;;;;;;;;;;5012700;28;20057;-61
2023/06/07 08:11:48;;;;;;;10.43;3.33;;;17.20;99.90;;;;;;5013099;28;20049;-62
2023/06/07 08:14:14;;;;;;;17.10;4.20;;;17.20;99.90;;;;;;5012358;28;20034;-62
2023/06/07 08:16:40;;;;;;;11.57;2.97;;;;;;;;;;5012782;28;20530;-61
2023/06/07 08:19:07;;;;;;;8.02;2.45;;;;;;;;;;5012840;28;20132;-61
2023/06/07 08:21:33;;;;;;;10.23;3.28;;;17.30;99.90;;;;;;5011281;28;20077;-61
2023/06/07 08:23:59;;;;;;;12.15;2.88;;;;;;;;;;5012825;28;20045;-61
2023/06/07 08:26:26;;;;;;;13.20;3.50;;;;;;;;;;5012109;28;20545;-61
2023/06/07 08:28:52;;;;;;;13.40;3.05;;;;;;;;;;5012516;28;20128;-61
2023/06/07 08:31:18;;;;;;;12.27;4.00;;;;;;;;;;5012396;28;20084;-61
2023/06/07 08:33:44;;;;;;;9.50;3.42;;;17.70;99.90;;;;;;5012654;28;20071;-61
2023/06/07 08:36:10;;;;;;;13.80;3.75;;;;;;;;;;4995172;28;20054;-61
2023/06/07 08:38:41;;;;;;;9.43;4.15;;;;;;;;;;4994964;28;20049;-61
2023/06/07 08:41:07;;;;;;;10.68;3.38;;;17.20;99.90;;;;;;5012648;28;20046;-61
2023/06/07 08:43:35;;;;;;;12.30;3.47;;;;;;;;;;5011650;28;20533;-61
2023/06/07 08:46:04;;;;;;;11.55;3.13;;;;;;;;;;5012395;28;20128;-61
2023/06/07 08:48:33;;;;;;;11.38;3.28;;;17.90;99.90;;;;;;5012087;28;20042;-60
2023/06/07 08:51:01;;;;;;;11.63;4.40;;;17.80;99.90;;;;;;5012562;28;20056;-61
2023/06/07 08:53:33;;;;;;;10.27;3.47;;;17.90;99.90;;;;;;5012043;28;20549;-61
2023/06/07 08:56:00;;;;;;;11.40;2.90;;;;;;;;;;4995082;28;20482;-61
2023/06/07 08:58:27;;;;;;;10.27;2.55;;;17.90;99.90;;;;;;5010459;28;20045;-60
2023/06/07 09:00:53;;;;;;;9.77;2.63;;;;;;;;;;5012196;28;20034;-61
2023/06/07 09:03:19;;;;;;;16.55;3.47;;;;;;;;;;5011618;28;20061;-61
2023/06/07 09:05:46;;;;;;;11.32;3.55;;;18.00;99.90;;;;;;5012641;28;20120;-62
2023/06/07 09:08:12;;;;;;;7.15;2.80;;;18.50;99.90;;;;;;5012356;28;20049;-61
2023/06/07 09:10:38;;;;;;;10.95;3.22;;;18.60;99.90;;;;;;5012199;28;20057;-61
2023/06/07 09:13:05;;;;;;;7.32;2.90;;;18.30;99.90;;;;;;4994764;28;20053;-62
2023/06/07 09:15:31;;;;;;;9.50;2.92;;;;;;;;;;5011939;28;20478;-61
2023/06/07 09:17:58;;;;;;;9.68;3.88;;;18.70;99.90;;;;;;5011953;28;20058;-62
2023/06/07 09:20:26;;;;;;;11.60;2.90;;;18.40;99.90;;;;;;5011964;28;20050;-61
2023/06/07 09:23:16;;;;;;;9.80;2.85;;;18.80;99.90;;;;;;4994598;28;20054;-62
2023/06/07 09:25:45;;;;;;;7.80;3.00;;;19.40;99.90;;;;;;4994390;28;20068;-62
2023/06/07 09:28:14;;;;;;;8.38;2.78;;;19.70;99.90;;;;;;5012048;28;20058;-62
2023/06/07 09:30:51;;;;;;;8.68;3.22;;;20.10;99.90;;;;;;5012153;28;20448;-62
2023/06/07 09:33:28;;;;;;;9.30;3.15;;;19.80;99.90;;;;;;5011880;28;20137;-62
2023/06/07 09:36:12;;;;;;;11.43;3.05;;;19.30;99.90;;;;;;4994705;28;20506;-62
2023/06/07 09:38:38;;;;;;;11.40;3.45;;;19.70;99.90;;;;;;5012648;28;20056;-62
2023/06/07 09:41:06;;;;;;;8.88;3.20;;;19.60;99.90;;;;;;4998236;28;20046;-62
2023/06/07 09:43:51;;;;;;;14.45;4.05;;;19.60;99.90;;;;;;5015410;28;20046;-61
2023/06/07 09:46:21;;;;;;;7.78;2.90;;;19.50;99.90;;;;;;4998122;28;20046;-62
2023/06/07 09:48:51;;;;;;;12.98;3.80;;;19.30;99.90;;;;;;5015519;28;20498;-61
2023/06/07 09:51:20;;;;;;;10.98;3.22;;;19.20;99.90;;;;;;5015135;28;20053;-62
2023/06/07 09:54:05;;;;;;;10.00;3.50;;;19.40;99.90;;;;;;5015650;28;20129;-62
2023/06/07 09:56:31;;;;;;;15.95;3.42;;;;;;;;;;5015189;28;20085;-62
2023/06/07 09:59:13;;;;;;;12.25;3.38;;;19.90;99.90;;;;;;5015339;28;20124;-62
2023/06/07 10:01:45;;;;;;;9.63;4.25;;;20.00;99.90;;;;;;5015212;28;20034;-62
2023/06/07 10:04:12;;;;;;;8.88;3.70;;;20.00;99.90;;;;;;5015315;28;20383;-62
2023/06/07 10:06:42;;;;;;;12.45;4.25;;;20.40;99.90;;;;;;5015342;28;20132;-62
2023/06/07 10:09:09;;;;;;;8.63;3.92;;;19.80;99.90;;;;;;5013801;28;20576;-62
2023/06/07 10:11:37;;;;;;;10.50;3.00;;;20.00;99.90;;;;;;5015008;28;20054;-62
2023/06/07 10:14:16;;;;;;;8.65;3.30;;;20.40;99.90;;;;;;5014995;28;20041;-62
2023/06/07 10:17:03;;;;;;;11.27;2.87;;;20.90;99.90;;;;;;5015386;28;20049;-62
2023/06/07 10:19:40;;;;;;;16.40;4.38;;;20.80;99.90;;;;;;4997486;28;20193;-62
2023/06/07 10:22:14;;;;;;;9.63;3.58;;;20.90;99.90;;;;;;5015001;28;20042;-62
2023/06/07 10:24:59;;;;;;;9.40;2.97;;;20.70;99.90;;;;;;5014502;28;20034;-62
2023/06/07 10:27:28;;;;;;;8.10;3.20;;;20.70;99.90;;;;;;5014820;28;20085;-62
2023/06/07 10:30:07;;;;;;;11.23;3.40;;;20.50;99.90;;;;;;5014916;28;20050;-62
2023/06/07 10:32:36;;;;;;;9.48;3.45;;;;;;;;;;4997059;28;20353;-62
2023/06/07 10:35:03;;;;;;;13.10;4.05;;;20.30;99.90;;;;;;5014739;28;20100;-62
2023/06/07 10:37:32;;;;;;;8.93;3.45;;;20.30;99.90;;;;;;5014592;28;20534;-62
2023/06/07 10:39:58;;;;;;;11.63;3.60;;;20.40;99.90;;;;;;5014142;28;20494;-62
2023/06/07 10:42:25;;;;;;;10.82;3.70;;;20.50;99.90;;;;;;5014387;28;20085;-62
2023/06/07 10:44:50;;;;;;;9.80;3.72;;;20.70;99.90;;;;;;4997220;28;20046;-62
2023/06/07 10:47:22;;;;;;;11.38;3.78;;;20.40;99.90;;;;;;5013057;28;20501;-62
2023/06/07 10:49:49;;;;;;;13.05;4.07;;;;;;;;;;5014263;28;20050;-62
2023/06/07 10:52:15;;;;;;;7.97;3.30;;;;;;;;;;5013948;28;20144;-62
2023/06/07 10:54:42;;;;;;;9.07;3.40;;;20.20;99.90;;;;;;5014398;28;20163;-62
2023/06/07 10:57:09;;;;;;;10.68;4.72;;;20.40;99.90;;;;;;5013116;28;20116;-62
2023/06/07 10:59:39;;;;;;;10.95;4.10;;;20.40;99.90;;;;;;5014028;28;20127;-62
2023/06/07 11:02:24;;;;;;;;;;;20.40;99.90;;;;;;5014526;28;20059;-62
2023/06/07 11:05:03;;;;;;;9.88;3.80;;;20.50;99.90;;;;;;5014160;28;20016;-62
2023/06/07 11:07:32;;;;;;;12.50;4.60;;;20.60;99.90;;;;;;5013458;28;20050;-63
2023/06/07 11:10:02;;;;;;;10.82;3.38;;;20.80;99.90;;;;;;5014021;28;20121;-62
2023/06/07 11:12:40;;;;;;;13.05;3.78;;;20.80;99.90;;;;;;5013739;28;20069;-62
2023/06/07 11:15:22;;;;;;;8.43;3.50;;;;;;;;;;5014013;28;20049;-62
2023/06/07 11:17:51;;;;;;;9.02;3.80;;;20.90;99.90;;;;;;5014004;28;20057;-63
2023/06/07 11:20:37;;;;;;;11.18;4.38;;;21.10;99.90;;;;;;5012482;28;20054;-62
2023/06/07 11:23:21;;;;;;;11.88;3.60;;;;;;;;;;5013284;28;20414;-62
2023/06/07 11:25:47;;;;;;;9.98;3.70;;;21.50;99.90;;;;;;5013763;28;20081;-62
2023/06/07 11:28:13;;;;;;;14.90;4.05;;;;;;;;;;5013541;28;20057;-63
2023/06/07 11:30:45;;;;;;;7.57;3.40;;;21.60;99.90;;;;;;5013692;28;20046;-62
2023/06/07 11:33:18;;;;;;;9.30;3.88;;;;;;;;;;5013634;28;20081;-62
2023/06/07 11:35:44;;;;;;;5.22;3.22;;;;;;;;;;5013673;28;20107;-62
2023/06/07 11:38:10;;;;;;;7.43;2.80;;;;;;;;;;5013703;28;20469;-62
2023/06/07 11:40:36;;;;;;;15.05;3.78;;;;;;;;;;5013298;28;20050;-62
2023/06/07 11:43:03;;;;;;;8.85;3.50;;;;;;;;;;5013424;28;20046;-62
2023/06/07 11:45:32;;;;;;;7.75;3.38;;;;;;;;;;5011881;28;20037;-62
2023/06/07 11:48:01;;;;;;;8.65;3.83;;;;;;;;;;4996008;28;20058;-62
2023/06/07 11:50:27;;;;;;;8.97;3.53;;;;;;;;;;5012661;28;20487;-61
2023/06/07 11:52:53;;;;;;;9.20;3.92;;;;;;;;;;5013348;28;20157;-62
2023/06/07 11:55:20;;;;;;;9.45;3.20;;;;;;;;;;5012979;28;20045;-62
2023/06/07 11:57:48;;;;;;;10.70;3.25;;;21.80;99.90;;;;;;5013172;28;20446;-62
2023/06/07 12:00:16;;;;;;;13.07;3.72;;;;;;;;;;5012777;28;20121;-63
2023/06/07 12:02:43;;;;;;;9.05;3.35;;;21.50;99.90;;;;;;4995427;28;20093;-62
2023/06/07 12:05:09;;;;;;;8.27;3.15;;;;;;;;;;5012928;28;20116;-63
2023/06/07 12:07:36;;;;;;;8.80;3.63;;;21.70;99.90;;;;;;5012866;28;20061;-63
2023/06/07 12:10:06;;;;;;;10.00;3.70;;;21.80;99.90;;;;;;5012933;28;20057;-62
2023/06/07 12:12:32;;;;;;;11.57;4.38;;;;;;;;;;5012716;28;20256;-63
2023/06/07 12:15:00;;;;;;;9.73;4.10;;;21.60;99.90;;;;;;4995460;28;20060;-62
2023/06/07 12:17:34;;;;;;;11.02;4.10;;;22.00;99.90;;;;;;5012762;28;20057;-62
2023/06/07 12:20:07;;;;;;;14.48;4.60;;;;;;;;;;5012568;28;20045;-63
2023/06/07 12:22:33;;;;;;;13.27;3.88;;;23.00;99.90;;;;;;5012594;28;20053;-63
2023/06/07 12:25:10;;;;;;;8.57;3.88;;;23.30;99.90;;;;;;5012489;28;20042;-63
2023/06/07 12:27:39;;;;;;;8.55;3.25;;;;;;;;;;5012236;28;20526;-63
2023/06/07 12:30:08;;;;;;;7.88;3.97;;;22.60;99.90;;;;;;5012850;28;20049;-62
2023/06/07 12:32:34;;;;;;;9.05;3.75;;;;;;;;;;5012587;28;20053;-62
2023/06/07 12:35:01;;;;;;;10.85;3.42;;;23.00;99.90;;;;;;5012735;28;20045;-63
2023/06/07 12:37:28;;;;;;;10.20;3.67;;;;;;;;;;4994806;28;20183;-62
2023/06/07 12:39:54;;;;;;;9.77;3.55;;;;;;;;;;5012447;28;20446;-62
2023/06/07 12:42:20;;;;;;;8.80;3.47;;;;;;;;;;4995125;28;20047;-63
2023/06/07 12:44:47;;;;;;;8.88;3.75;;;;;;;;;;5012494;28;20394;-63
2023/06/07 12:47:13;;;;;;;12.02;4.05;;;;;;;;;;4994993;28;20054;-65
2023/06/07 12:49:41;;;;;;;10.32;4.10;;;;;;;;;;5012096;28;20521;-62
2023/06/07 12:52:07;;;;;;;10.77;3.80;;;22.20;99.90;;;;;;5012378;28;20046;-62
2023/06/07 12:54:36;;;;;;;6.75;3.35;;;;;;;;;;5012015;28;20046;-62
2023/06/07 12:57:02;;;;;;;13.40;4.53;;;;;;;;;;5012484;28;20398;-63
2023/06/07 12:59:28;;;;;;;7.60;3.38;;;;;;;;;;5012176;28;20088;-62
2023/06/07 13:01:54;;;;;;;11.40;5.00;;;;;;;;;;4994726;28;20463;-62
2023/06/07 13:04:20;;;;;;;10.68;3.92;;;;;;;;;;5011917;28;20053;-62
2023/06/07 13:06:46;;;;;;;9.77;3.80;;;22.30;99.90;;;;;;5012265;28;20056;-62
2023/06/07 13:09:12;;;;;;;8.52;3.97;;;;;;;;;;5012175;28;20542;-62
2023/06/07 13:11:38;;;;;;;10.40;4.13;;;;;;;;;;5012264;28;20046;-63
2023/06/07 13:14:05;;;;;;;9.48;3.90;;;;;;;;;;5015471;28;20120;-62
2023/06/07 13:16:31;;;;;;;9.32;4.25;;;;;;;;;;5016108;28;20474;-62
2023/06/07 13:18:57;;;;;;;10.02;4.10;;;22.50;99.90;;;;;;5015748;28;20057;-63
2023/06/07 13:21:24;;;;;;;11.25;5.80;;;;;;;;;;4998585;28;20046;-62
2023/06/07 13:23:50;;;;;;;12.95;5.00;;;;;;;;;;5015896;28;20053;-62
2023/06/07 13:26:16;;;;;;;10.48;5.25;;;22.10;99.90;;;;;;5014696;28;20052;-62
2023/06/07 13:28:44;;;;;;;8.95;4.63;;;;;;;;;;4998313;28;20498;-62
2023/06/07 13:31:13;;;;;;;12.13;5.03;;;;;;;;;;4998314;28;20050;-62
2023/06/07 13:33:40;;;;;;;10.13;5.03;;;;;;;;;;5015489;28;20406;-63
2023/06/07 13:36:06;;;;;;;11.27;5.30;;;;;;;;;;5015751;28;20099;-63
2023/06/07 13:38:32;;;;;;;10.65;4.38;;;;;;;;;;5015765;28;20049;-62
2023/06/07 13:40:59;;;;;;;11.35;5.22;;;;;;;;;;5015908;28;20054;-62
2023/06/07 13:43:25;;;;;;;12.85;4.18;;;;;;;;;;5014332;28;20054;-63
2023/06/07 13:45:51;;;;;;;13.43;4.97;;;;;;;;;;5015614;28;20096;-62
2023/06/07 13:48:19;;;;;;;9.43;4.63;;;;;;;;;;5015005;28;20046;-62
2023/06/07 13:50:51;;;;;;;12.20;4.72;;;;;;;;;;5015433;28;20050;-62
2023/06/07 13:53:18;;;;;;;13.13;5.20;;;;;;;;;;5015556;28;20046;-63
2023/06/07 13:55:45;;;;;;;13.65;4.22;;;22.60;99.90;;;;;;5015687;28;20058;-64
2023/06/07 13:58:11;;;;;;;9.00;3.90;;;;;;;;;;5015626;28;20100;-63
2023/06/07 14:00:37;;;;;;;11.00;4.97;;;;;;;;;;5015141;28;20406;-62
2023/06/07 14:03:03;;;;;;;11.68;4.65;;;;;;;;;;4997557;28;20117;-62
2023/06/07 14:05:30;;;;;;;9.18;5.03;;;;;;;;;;5014854;28;20046;-63
2023/06/07 14:07:56;;;;;;;14.15;4.97;;;;;;;;;;5015309;28;20053;-62